createdAt,value
2019-02-22T00:00:05.723Z,40.80
2019-02-22T00:05:11.194Z,39.87
2019-02-22T00:10:16.591Z,38.07
2019-02-22T00:15:22.013Z,45.37
2019-02-22T00:20:27.613Z,42.97
2019-02-22T00:25:33.139Z,42.17
2019-02-22T00:30:38.611Z,39.77
2019-02-22T00:35:44.075Z,43.53
2019-02-22T00:40:49.581Z,43.40
2019-02-22T00:45:55.004Z,37.20
2019-02-22T00:51:00.363Z,39.73
2019-02-22T00:56:05.779Z,38.43
2019-02-22T01:01:11.382Z,39.50
2019-02-22T01:06:16.917Z,39.93
2019-02-22T01:11:22.433Z,43.70
2019-02-22T01:16:28.080Z,34.67
2019-02-22T01:21:33.638Z,36.33
2019-02-22T01:26:39.328Z,39.93
2019-02-22T01:31:44.729Z,40.07
2019-02-22T01:36:50.248Z,42.73
2019-02-22T01:41:55.714Z,38.20
2019-02-22T01:47:01.252Z,39.70
2019-02-22T01:52:06.786Z,35.47
2019-02-22T01:57:12.281Z,39.60
2019-02-22T02:02:17.786Z,40.20
2019-02-22T02:07:23.420Z,44.63
2019-02-22T02:12:28.927Z,48.50
2019-02-22T02:17:34.417Z,48.13
2019-02-22T02:22:39.942Z,46.20
2019-02-22T02:27:45.420Z,50.10
2019-02-22T02:32:51.003Z,50.53
2019-02-22T02:37:56.412Z,47.93
2019-02-22T02:43:01.991Z,54.13
2019-02-22T02:48:07.479Z,52.07
2019-02-22T02:53:12.843Z,52.40
2019-02-22T02:58:18.298Z,49.00
2019-02-22T03:03:23.811Z,47.00
2019-02-22T03:08:33.574Z,47.47
2019-02-22T03:13:39.033Z,45.50
2019-02-22T03:18:44.738Z,46.03
2019-02-22T03:23:50.291Z,42.20
2019-02-22T03:28:55.675Z,40.73
2019-02-22T03:34:01.122Z,44.17
2019-02-22T03:39:07.727Z,41.63
2019-02-22T03:44:13.399Z,43.03
2019-02-22T03:49:18.904Z,42.90
2019-02-22T03:54:24.313Z,42.27
2019-02-22T03:59:29.702Z,48.13
2019-02-22T04:04:35.109Z,42.40
2019-02-22T04:09:40.647Z,46.33
2019-02-22T04:14:46.038Z,45.23
2019-02-22T04:19:51.655Z,45.87
2019-02-22T04:24:57.288Z,44.33
2019-02-22T04:30:02.769Z,42.93
2019-02-22T04:35:08.207Z,41.90
2019-02-22T04:40:13.647Z,45.87
2019-02-22T04:45:19.211Z,44.87
2019-02-22T04:50:24.745Z,43.33
2019-02-22T04:55:30.213Z,44.10
2019-02-22T05:00:35.660Z,42.43
2019-02-22T05:05:41.086Z,41.87
2019-02-22T05:10:46.568Z,39.87
2019-02-22T05:15:52.009Z,44.97
2019-02-22T05:20:57.394Z,45.63
2019-02-22T05:26:02.885Z,43.33
2019-02-22T05:31:08.464Z,40.43
2019-02-22T05:36:13.907Z,43.93
2019-02-22T05:41:19.364Z,46.30
2019-02-22T05:46:24.841Z,40.93
2019-02-22T05:51:30.324Z,47.67
2019-02-22T05:56:35.761Z,47.80
2019-02-22T06:01:41.155Z,47.13
2019-02-22T06:06:46.646Z,42.30
2019-02-22T06:11:52.050Z,48.37
2019-02-22T06:16:57.436Z,47.27
2019-02-22T06:22:03.108Z,44.70
2019-02-22T06:27:08.540Z,46.30
2019-02-22T06:32:13.961Z,44.43
2019-02-22T06:37:19.403Z,49.23
2019-02-22T06:42:24.823Z,46.90
2019-02-22T06:47:30.264Z,45.73
2019-02-22T06:52:35.850Z,46.13
2019-02-22T06:57:41.301Z,46.10
2019-02-22T07:02:46.846Z,47.33
2019-02-22T07:07:52.424Z,42.60
2019-02-22T07:13:01.652Z,50.50
2019-02-22T07:18:07.162Z,43.00
2019-02-22T07:23:12.661Z,40.93
2019-02-22T07:28:18.055Z,43.77
2019-02-22T07:33:23.734Z,43.60
2019-02-22T07:38:29.259Z,50.87
2019-02-22T07:43:34.702Z,49.90
2019-02-22T07:48:40.226Z,56.80
2019-02-22T07:53:45.731Z,59.40
2019-02-22T07:58:51.332Z,60.13
2019-02-22T08:03:56.939Z,63.47
2019-02-22T08:09:02.327Z,66.50
2019-02-22T08:14:08.071Z,61.77
2019-02-22T08:19:14.158Z,67.43
2019-02-22T08:24:19.654Z,70.40
2019-02-22T08:29:27.111Z,68.97
2019-02-22T08:34:32.213Z,72.93
2019-02-22T08:39:37.591Z,64.40
2019-02-22T08:44:43.031Z,75.87
2019-02-22T08:49:48.518Z,73.27
2019-02-22T08:54:54.070Z,71.00
2019-02-22T08:59:59.454Z,72.77
2019-02-22T09:05:05.301Z,69.87
2019-02-22T09:10:11.187Z,79.33
2019-02-22T09:15:16.669Z,70.53
2019-02-22T09:20:22.144Z,74.07
2019-02-22T09:25:27.730Z,65.43
2019-02-22T09:30:33.221Z,67.33
2019-02-22T09:35:38.854Z,65.23
2019-02-22T09:40:44.592Z,59.43
2019-02-22T09:45:50.068Z,56.30
2019-02-22T09:50:55.648Z,61.10
2019-02-22T09:56:01.126Z,53.10
2019-02-22T10:01:06.501Z,54.10
2019-02-22T10:06:11.893Z,51.77
2019-02-22T10:11:17.297Z,48.67
2019-02-22T10:16:22.792Z,45.30
2019-02-22T10:21:28.194Z,45.23
2019-02-22T10:26:33.653Z,41.13
2019-02-22T10:31:39.263Z,43.97
2019-02-22T10:36:45.649Z,37.27
2019-02-22T10:41:51.103Z,38.40
2019-02-22T10:46:56.516Z,36.50
2019-02-22T10:52:01.894Z,32.93
2019-02-22T10:57:07.436Z,29.10
2019-02-22T11:02:12.999Z,28.77
2019-02-22T11:07:18.442Z,23.50
2019-02-22T11:12:23.927Z,25.00
2019-02-22T11:17:29.381Z,26.80
2019-02-22T11:22:34.789Z,28.83
2019-02-22T11:27:40.318Z,28.63
2019-02-22T11:32:45.672Z,30.40
2019-02-22T11:37:51.324Z,26.47
2019-02-22T11:42:56.897Z,19.33
2019-02-22T11:48:09.188Z,15.50
2019-02-22T11:53:09.412Z,12.73
2019-02-22T11:58:14.848Z,11.17
2019-02-22T12:03:24.626Z,11.50
2019-02-22T12:08:27.375Z,9.90
2019-02-22T12:13:32.806Z,13.20
2019-02-22T12:18:38.199Z,11.83
2019-02-22T12:23:43.724Z,12.63
2019-02-22T12:28:49.152Z,12.57
2019-02-22T12:33:54.584Z,12.00
2019-02-22T12:38:59.954Z,10.83
2019-02-22T12:44:05.359Z,11.30
2019-02-22T12:49:10.769Z,11.80
2019-02-22T12:54:16.200Z,8.50
2019-02-22T12:59:21.596Z,7.73
2019-02-22T13:04:26.996Z,8.90
2019-02-22T13:09:36.428Z,11.90
2019-02-22T13:14:39.503Z,7.53
2019-02-22T13:19:44.900Z,7.20
2019-02-22T13:24:50.477Z,7.43
2019-02-22T13:29:55.941Z,6.43
2019-02-22T13:35:01.447Z,5.80
2019-02-22T13:40:08.705Z,6.30
2019-02-22T13:45:25.609Z,5.83
2019-02-22T13:50:21.389Z,5.53
2019-02-22T13:55:26.774Z,5.60
2019-02-22T14:00:32.387Z,6.03
2019-02-22T14:05:37.871Z,5.40
2019-02-22T14:10:44.157Z,4.03
2019-02-22T14:15:49.895Z,5.07
2019-02-22T14:20:55.793Z,5.57
2019-02-22T14:26:01.725Z,3.97
2019-02-22T14:31:07.603Z,3.97
2019-02-22T14:36:13.389Z,5.60
2019-02-22T14:41:18.955Z,4.50
2019-02-22T14:46:26.160Z,5.70
2019-02-22T14:51:32.040Z,5.87
2019-02-22T14:56:37.730Z,5.50
2019-02-22T15:01:43.393Z,6.30
2019-02-22T15:06:48.848Z,5.23
2019-02-22T15:11:54.315Z,5.03
2019-02-22T15:17:09.554Z,4.47
2019-02-22T15:22:15.221Z,4.23
2019-02-22T15:27:20.945Z,5.87
2019-02-22T15:32:27.108Z,6.93
2019-02-22T15:37:32.710Z,7.97
2019-02-22T15:42:40.529Z,8.07
2019-02-22T15:47:45.350Z,4.60
2019-02-22T15:52:51.121Z,5.27
2019-02-22T15:57:57.015Z,4.30
2019-02-22T16:03:02.660Z,6.90
2019-02-22T16:08:08.481Z,4.17
2019-02-22T16:13:14.093Z,6.60
2019-02-22T16:18:19.660Z,5.57
2019-02-22T16:23:25.144Z,7.57
2019-02-22T16:28:31.069Z,5.83
2019-02-22T16:33:36.650Z,6.10
2019-02-22T16:38:42.144Z,6.73
2019-02-22T16:43:47.749Z,6.33
2019-02-22T16:48:53.510Z,6.07
2019-02-22T16:53:58.958Z,6.10
2019-02-22T16:59:04.390Z,11.10
2019-02-22T17:04:10.106Z,7.27
2019-02-22T17:09:16.068Z,9.03
2019-02-22T17:14:21.535Z,7.03
2019-02-22T17:19:36.178Z,9.30
2019-02-22T17:24:41.678Z,6.83
2019-02-22T17:29:47.148Z,7.63
2019-02-22T17:34:52.733Z,10.53
2019-02-22T17:39:58.200Z,8.93
2019-02-22T17:45:03.667Z,8.40
2019-02-22T17:50:09.531Z,7.17
2019-02-22T17:55:15.011Z,9.43
2019-02-22T18:00:21.495Z,8.07
2019-02-22T18:05:26.935Z,9.63
2019-02-22T18:10:37.383Z,9.40
2019-02-22T18:15:46.207Z,9.87
2019-02-22T18:20:54.839Z,8.80
2019-02-22T18:26:04.643Z,10.27
2019-02-22T18:31:14.737Z,12.80
2019-02-22T18:36:24.011Z,14.93
2019-02-22T18:41:30.832Z,13.67
2019-02-22T18:46:38.079Z,12.60
2019-02-22T18:51:45.942Z,12.23
2019-02-22T18:56:55.376Z,13.03
2019-02-22T19:02:01.664Z,14.33
2019-02-22T19:07:07.797Z,16.40
2019-02-22T19:12:13.682Z,18.70
2019-02-22T19:17:29.902Z,19.80
2019-02-22T19:22:26.468Z,20.90
2019-02-22T19:27:33.995Z,21.13
2019-02-22T19:32:39.369Z,21.83
2019-02-22T19:37:44.913Z,21.13
2019-02-22T19:42:51.038Z,19.57
2019-02-22T19:47:56.925Z,21.43
2019-02-22T19:53:02.538Z,19.27
2019-02-22T19:58:08.109Z,20.37
2019-02-22T20:03:13.627Z,24.43
2019-02-22T20:08:19.325Z,21.00
2019-02-22T20:13:24.796Z,18.87
2019-02-22T20:18:30.319Z,22.43
2019-02-22T20:23:35.861Z,18.87
2019-02-22T20:28:41.305Z,19.47
2019-02-22T20:33:47.011Z,18.43
2019-02-22T20:38:52.572Z,18.23
2019-02-22T20:43:58.075Z,16.77
2019-02-22T20:49:03.667Z,18.73
2019-02-22T20:54:09.160Z,16.07
2019-02-22T20:59:14.721Z,17.13
2019-02-22T21:04:20.329Z,20.57
2019-02-22T21:09:25.896Z,18.70
2019-02-22T21:14:31.488Z,17.20
2019-02-22T21:19:37.047Z,18.20
2019-02-22T21:24:42.429Z,17.27
2019-02-22T21:29:47.811Z,17.83
2019-02-22T21:34:53.391Z,22.30
2019-02-22T21:39:58.881Z,17.07
2019-02-22T21:45:04.291Z,17.23
2019-02-22T21:50:12.432Z,18.17
2019-02-22T21:55:17.974Z,20.57
2019-02-22T22:00:23.506Z,20.03
2019-02-22T22:05:29.253Z,20.73
2019-02-22T22:10:34.801Z,19.93
2019-02-22T22:15:40.168Z,19.67
2019-02-22T22:20:45.593Z,17.20
2019-02-22T22:25:50.986Z,17.83
2019-02-22T22:30:56.454Z,20.33
2019-02-22T22:36:01.905Z,19.97
2019-02-22T22:41:07.407Z,20.63
2019-02-22T22:46:12.863Z,19.87
2019-02-22T22:51:18.271Z,19.50
2019-02-22T22:56:23.691Z,20.33
2019-02-22T23:01:30.866Z,21.57
2019-02-22T23:06:36.285Z,22.30
2019-02-22T23:11:41.850Z,21.07
2019-02-22T23:16:47.839Z,18.60
2019-02-22T23:21:53.263Z,23.13
2019-02-22T23:26:58.656Z,21.10
2019-02-22T23:32:04.155Z,21.37
2019-02-22T23:37:09.567Z,25.03
2019-02-22T23:42:14.982Z,21.77
2019-02-22T23:47:20.380Z,21.67
2019-02-22T23:52:25.918Z,19.47
2019-02-22T23:57:31.493Z,19.37
